createdAt,value
2022-12-28T00:02:13.973Z,97537.25
2022-12-28T00:04:40.496Z,97531.50
2022-12-28T00:07:07.447Z,97531.75
2022-12-28T00:09:33.915Z,97533.88
2022-12-28T00:12:00.522Z,97529.91
2022-12-28T00:14:27.593Z,97541.88
2022-12-28T00:16:54.205Z,97534.25
2022-12-28T00:19:20.634Z,97528.19
2022-12-28T00:21:47.116Z,97529.91
2022-12-28T00:24:20.641Z,97530.72
2022-12-28T00:26:47.152Z,97529.03
2022-12-28T00:29:13.679Z,97525.84
2022-12-28T00:31:40.131Z,97517.56
2022-12-28T00:34:06.814Z,97519.44
2022-12-28T00:37:08.701Z,97506.94
2022-12-28T00:39:20.283Z,97511.13
2022-12-28T00:41:46.763Z,97524.69
2022-12-28T00:44:13.223Z,97520.34
2022-12-28T00:46:39.705Z,97521.03
2022-12-28T00:49:06.167Z,97526.84
2022-12-28T00:51:32.568Z,97529.25
2022-12-28T00:53:59.350Z,97520.75
2022-12-28T00:56:25.871Z,97518.91
2022-12-28T00:58:55.871Z,97526.47
2022-12-28T01:01:22.620Z,97530.56
2022-12-28T01:03:49.243Z,97535.59
2022-12-28T01:06:16.974Z,97540.59
2022-12-28T01:08:43.434Z,97532.88
2022-12-28T01:11:23.044Z,97538.03
2022-12-28T01:13:49.731Z,97544.78
2022-12-28T01:16:17.046Z,97542.47
2022-12-28T01:18:44.105Z,97538.38
2022-12-28T01:21:14.915Z,97543.53
2022-12-28T01:23:41.329Z,97543.53
2022-12-28T01:26:07.994Z,97551.22
2022-12-28T01:28:34.485Z,97546.97
2022-12-28T01:31:07.866Z,97543.44
2022-12-28T01:33:34.319Z,97548.38
2022-12-28T01:36:05.597Z,97544.19
2022-12-28T01:38:32.011Z,97554.31
2022-12-28T01:40:58.479Z,97544.03
2022-12-28T01:43:44.223Z,97538.97
2022-12-28T01:46:20.784Z,97548.28
2022-12-28T01:48:50.354Z,97533.84
2022-12-28T01:51:17.588Z,97529.75
2022-12-28T01:53:44.058Z,97528.16
2022-12-28T01:56:10.526Z,97527.25
2022-12-28T01:58:37.201Z,97523.94
2022-12-28T02:01:03.818Z,97519.97
2022-12-28T02:03:31.313Z,97520.03
2022-12-28T02:05:58.235Z,97513.28
2022-12-28T02:08:27.682Z,97503.13
2022-12-28T02:10:54.087Z,97491.31
2022-12-28T02:13:20.744Z,97492.97
2022-12-28T02:15:47.257Z,97484.47
2022-12-28T02:18:14.228Z,97486.22
2022-12-28T02:20:55.903Z,97476.03
2022-12-28T02:23:31.608Z,97470.94
2022-12-28T02:26:16.951Z,97471.00
2022-12-28T02:29:02.171Z,97457.47
2022-12-28T02:31:41.688Z,97457.13
2022-12-28T02:34:14.343Z,97454.44
2022-12-28T02:36:42.100Z,97462.97
2022-12-28T02:39:09.390Z,97455.28
2022-12-28T02:41:35.941Z,97454.38
2022-12-28T02:44:02.413Z,97455.19
2022-12-28T02:46:47.965Z,97463.72
2022-12-28T02:49:37.120Z,97456.09
2022-12-28T02:52:22.402Z,97467.06
2022-12-28T02:55:10.722Z,97466.19
2022-12-28T02:57:37.167Z,97461.19
2022-12-28T03:00:05.110Z,97462.09
2022-12-28T03:02:31.698Z,97460.44
2022-12-28T03:05:41.483Z,97452.78
2022-12-28T03:08:20.550Z,97456.34
2022-12-28T03:10:50.356Z,97453.94
2022-12-28T03:13:43.389Z,97454.03
2022-12-28T03:16:18.140Z,97443.91
2022-12-28T03:19:03.736Z,97443.97
2022-12-28T03:21:48.801Z,97441.44
2022-12-28T03:24:33.938Z,97437.19
2022-12-28T03:27:19.109Z,97429.56
2022-12-28T03:30:06.419Z,97423.50
2022-12-28T03:32:32.858Z,97429.31
2022-12-28T03:34:59.329Z,97429.22
2022-12-28T03:37:25.832Z,97439.25
2022-12-28T03:40:00.171Z,97436.53
2022-12-28T03:42:46.276Z,97437.28
2022-12-28T03:45:46.131Z,97417.75
2022-12-28T03:48:07.191Z,97420.19
2022-12-28T03:50:40.122Z,97409.13
2022-12-28T03:53:06.996Z,97399.03
2022-12-28T03:55:33.526Z,97401.56
2022-12-28T03:57:59.982Z,97391.38
2022-12-28T04:00:26.430Z,97396.47
2022-12-28T04:02:53.193Z,97393.88
2022-12-28T04:05:21.474Z,97381.22
2022-12-28T04:07:47.903Z,97370.09
2022-12-28T04:10:14.386Z,97359.91
2022-12-28T04:12:40.849Z,97364.09
2022-12-28T04:15:07.506Z,97358.13
2022-12-28T04:17:34.016Z,97356.41
2022-12-28T04:20:00.584Z,97356.53
2022-12-28T04:22:27.177Z,97355.66
2022-12-28T04:24:53.642Z,97351.22
2022-12-28T04:27:20.111Z,97346.97
2022-12-28T04:29:46.578Z,97348.50
2022-12-28T04:32:13.037Z,97204.34
2022-12-28T04:34:44.739Z,97334.84
2022-12-28T04:37:14.630Z,97329.50
2022-12-28T04:39:55.690Z,97334.50
2022-12-28T04:42:23.998Z,97336.91
2022-12-28T04:44:50.443Z,97325.91
2022-12-28T04:47:16.914Z,97323.25
2022-12-28T04:49:43.421Z,97324.06
2022-12-28T04:52:09.881Z,97328.31
2022-12-28T04:54:36.318Z,97334.19
2022-12-28T04:57:02.922Z,97337.47
2022-12-28T04:59:29.343Z,97340.03
2022-12-28T05:01:55.886Z,97334.94
2022-12-28T05:04:22.510Z,97323.88
2022-12-28T05:06:48.979Z,97321.25
2022-12-28T05:09:15.498Z,97313.63
2022-12-28T05:11:41.981Z,97333.97
2022-12-28T05:14:08.433Z,97330.69
2022-12-28T05:16:34.948Z,97328.06
2022-12-28T05:19:01.483Z,97329.72
2022-12-28T05:21:28.111Z,97322.78
2022-12-28T05:23:54.754Z,97320.91
2022-12-28T05:26:22.051Z,97331.94
2022-12-28T05:28:48.542Z,97326.78
2022-12-28T05:31:15.859Z,97320.59
2022-12-28T05:33:42.541Z,97334.72
2022-12-28T05:36:09.044Z,97321.09
2022-12-28T05:38:35.590Z,97319.56
2022-12-28T05:41:09.021Z,97321.34
2022-12-28T05:43:35.569Z,97325.81
2022-12-28T05:46:05.955Z,97324.91
2022-12-28T05:48:33.282Z,97325.13
2022-12-28T05:51:00.682Z,97319.25
2022-12-28T05:53:28.140Z,97316.91
2022-12-28T05:55:59.652Z,97316.88
2022-12-28T05:58:26.094Z,97320.25
2022-12-28T06:00:52.525Z,97307.34
2022-12-28T06:03:19.071Z,97298.63
2022-12-28T06:05:45.577Z,97299.81
2022-12-28T06:08:12.083Z,97298.00
2022-12-28T06:10:38.622Z,97299.53
2022-12-28T06:13:05.071Z,97294.88
2022-12-28T06:15:31.512Z,97294.50
2022-12-28T06:17:57.942Z,97298.44
2022-12-28T06:20:24.394Z,97298.31
2022-12-28T06:22:50.844Z,97288.78
2022-12-28T06:25:17.337Z,97282.81
2022-12-28T06:27:43.859Z,97278.44
2022-12-28T06:30:10.683Z,97286.81
2022-12-28T06:32:37.160Z,97282.53
2022-12-28T06:35:03.802Z,97290.91
2022-12-28T06:37:30.245Z,97286.50
2022-12-28T06:39:56.736Z,97287.38
2022-12-28T06:42:23.195Z,97286.50
2022-12-28T06:44:49.724Z,97279.69
2022-12-28T06:47:16.200Z,97283.72
2022-12-28T06:49:42.632Z,97293.09
2022-12-28T06:52:09.064Z,97290.50
2022-12-28T06:54:35.565Z,97293.09
2022-12-28T06:57:02.376Z,97293.19
2022-12-28T06:59:28.828Z,97285.69
2022-12-28T07:01:55.599Z,97290.78
2022-12-28T07:04:22.103Z,97275.25
2022-12-28T07:06:48.617Z,97276.06
2022-12-28T07:09:15.549Z,97281.06
2022-12-28T07:11:42.431Z,97283.31
2022-12-28T07:14:08.925Z,97278.13
2022-12-28T07:19:00.872Z,97276.19
2022-12-28T07:21:31.729Z,97271.78
2022-12-28T07:23:58.329Z,97260.31
2022-12-28T07:26:25.971Z,97252.81
2022-12-28T07:28:53.010Z,97257.25
2022-12-28T07:31:23.482Z,97241.47
2022-12-28T07:33:50.486Z,97246.44
2022-12-28T07:36:17.644Z,97256.13
2022-12-28T07:38:44.420Z,97253.03
2022-12-28T07:41:14.775Z,97258.56
2022-12-28T07:43:41.289Z,97251.31
2022-12-28T07:46:11.975Z,97244.75
2022-12-28T07:48:38.474Z,97253.53
2022-12-28T07:51:15.043Z,97241.00
2022-12-28T07:53:41.922Z,97244.06
2022-12-28T07:56:08.449Z,97239.88
2022-12-28T07:58:34.990Z,97233.53
2022-12-28T08:01:05.503Z,97235.75
2022-12-28T08:03:32.776Z,97220.81
2022-12-28T08:06:09.538Z,97227.72
2022-12-28T08:08:36.594Z,97225.66
2022-12-28T08:14:31.193Z,97232.25
2022-12-28T08:16:57.732Z,97226.13
2022-12-28T08:19:24.307Z,97227.41
2022-12-28T08:21:50.721Z,97229.72
2022-12-28T08:24:18.001Z,97220.88
2022-12-28T08:26:44.571Z,97226.47
2022-12-28T08:29:12.494Z,97226.09
2022-12-28T08:31:40.536Z,97223.66
2022-12-28T08:34:07.934Z,97221.31
2022-12-28T08:36:34.465Z,97235.22
2022-12-28T08:39:01.192Z,97223.41
2022-12-28T08:41:27.996Z,97225.72
2022-12-28T08:43:54.466Z,97226.72
2022-12-28T08:46:28.215Z,97227.34
2022-12-28T08:48:55.312Z,97247.88
2022-12-28T08:51:21.774Z,97245.16
2022-12-28T08:53:48.357Z,97247.97
2022-12-28T08:56:25.178Z,97243.38
2022-12-28T08:58:51.737Z,97253.94
2022-12-28T09:01:22.294Z,97252.44
2022-12-28T09:03:49.862Z,97256.81
2022-12-28T09:06:18.193Z,97250.03
2022-12-28T09:08:56.868Z,97257.72
2022-12-28T09:11:31.350Z,97256.66
2022-12-28T09:13:57.902Z,97253.47
2022-12-28T09:16:26.484Z,97249.44
2022-12-28T09:18:53.505Z,97262.91
2022-12-28T09:21:20.206Z,97272.78
2022-12-28T09:23:46.974Z,97264.84
2022-12-28T09:26:14.503Z,97275.56
2022-12-28T09:28:44.697Z,97262.22
2022-12-28T09:31:11.242Z,97251.00
2022-12-28T09:36:43.628Z,97238.78
2022-12-28T09:39:12.461Z,97247.66
2022-12-28T09:41:48.575Z,97233.97
2022-12-28T09:44:18.089Z,97237.75
2022-12-28T09:46:51.940Z,97236.50
2022-12-28T09:49:18.784Z,97231.53
2022-12-28T09:51:55.443Z,97215.63
2022-12-28T09:54:22.073Z,97216.63
2022-12-28T09:56:48.557Z,97218.38
2022-12-28T09:59:19.561Z,97211.16
2022-12-28T10:01:46.196Z,97213.09
2022-12-28T10:04:12.737Z,97221.53
2022-12-28T10:06:40.451Z,97217.63
2022-12-28T10:09:21.942Z,97208.06
2022-12-28T10:11:48.404Z,97197.31
2022-12-28T10:14:21.051Z,97201.31
2022-12-28T10:16:48.883Z,97195.34
2022-12-28T10:19:19.258Z,97190.31
2022-12-28T10:21:45.901Z,97184.09
2022-12-28T10:24:30.759Z,97178.97
2022-12-28T10:26:59.014Z,97176.09
2022-12-28T10:29:26.211Z,97166.97
2022-12-28T10:32:12.711Z,97165.00
2022-12-28T10:34:46.339Z,97161.91
2022-12-28T10:37:16.279Z,97149.91
2022-12-28T10:39:49.914Z,97144.88
2022-12-28T10:42:31.702Z,97140.38
2022-12-28T10:45:02.605Z,97130.94
2022-12-28T10:47:30.664Z,97122.22
2022-12-28T10:50:35.543Z,97115.16
2022-12-28T10:52:43.685Z,97109.94
2022-12-28T10:55:45.510Z,97109.66
2022-12-28T10:58:33.236Z,97111.94
2022-12-28T11:01:08.124Z,97113.47
2022-12-28T11:03:36.915Z,97115.03
2022-12-28T11:06:13.877Z,97115.63
2022-12-28T11:08:40.548Z,97115.44
2022-12-28T11:11:07.319Z,97100.97
2022-12-28T11:13:33.805Z,97097.38
2022-12-28T11:16:00.427Z,97102.63
2022-12-28T11:18:26.889Z,97112.41
2022-12-28T11:20:53.655Z,97111.16
2022-12-28T11:23:26.565Z,97114.38
2022-12-28T11:25:53.186Z,97104.22
2022-12-28T11:28:20.237Z,97114.25
2022-12-28T11:30:49.046Z,97119.41
2022-12-28T11:33:34.243Z,97113.16
2022-12-28T11:36:02.536Z,97113.03
2022-12-28T11:38:45.221Z,97109.94
2022-12-28T11:41:12.711Z,97099.38
2022-12-28T11:43:40.218Z,97106.16
2022-12-28T11:46:06.711Z,97105.94
2022-12-28T11:48:45.106Z,97106.84
2022-12-28T11:51:18.822Z,97111.16
2022-12-28T11:53:45.331Z,97106.03
2022-12-28T11:56:11.745Z,97097.41
2022-12-28T11:58:41.256Z,97092.91
2022-12-28T12:01:11.346Z,97091.88
2022-12-28T12:04:01.064Z,97089.41
2022-12-28T12:06:43.091Z,97092.78
2022-12-28T12:09:21.652Z,97085.50
2022-12-28T12:11:48.562Z,97085.31
2022-12-28T12:14:15.652Z,97078.53
2022-12-28T12:16:52.206Z,97074.75
2022-12-28T12:19:28.866Z,97062.19
2022-12-28T12:22:12.858Z,97070.19
2022-12-28T12:24:49.945Z,97065.66
2022-12-28T12:27:18.907Z,97053.53
2022-12-28T12:29:47.082Z,97040.13
2022-12-28T12:32:13.508Z,97048.53
2022-12-28T12:34:44.870Z,96974.66
2022-12-28T12:37:30.166Z,97048.31
2022-12-28T12:40:11.951Z,97034.00
2022-12-28T12:42:38.498Z,97027.91
2022-12-28T12:45:23.730Z,97020.47
2022-12-28T12:48:00.279Z,97023.41
2022-12-28T12:50:49.262Z,97017.94
2022-12-28T12:53:15.669Z,97009.66
2022-12-28T12:55:45.198Z,97005.25
2022-12-28T12:58:20.864Z,97007.38
2022-12-28T13:01:06.124Z,97007.94
2022-12-28T13:03:34.275Z,97007.84
2022-12-28T13:06:00.935Z,96998.47
2022-12-28T13:08:50.777Z,96987.47
2022-12-28T13:11:17.396Z,96980.81
2022-12-28T13:13:44.557Z,96979.44
2022-12-28T13:16:11.680Z,96977.69
2022-12-28T13:18:46.062Z,96969.72
2022-12-28T13:21:16.881Z,96966.16
2022-12-28T13:23:43.796Z,96972.47
2022-12-28T13:26:10.235Z,96959.47
2022-12-28T13:28:36.780Z,96964.69
2022-12-28T13:31:08.600Z,96965.88
2022-12-28T13:33:35.126Z,96970.41
2022-12-28T13:36:19.516Z,96963.75
2022-12-28T13:38:46.254Z,96982.38
2022-12-28T13:41:20.047Z,96981.72
2022-12-28T13:43:46.579Z,96979.69
2022-12-28T13:46:13.383Z,96986.91
2022-12-28T13:48:40.930Z,96982.19
2022-12-28T13:51:10.985Z,96992.09
2022-12-28T13:53:37.494Z,96986.56
2022-12-28T13:56:04.673Z,96989.31
2022-12-28T13:58:35.581Z,96971.84
2022-12-28T14:01:03.351Z,96968.25
2022-12-28T14:03:34.556Z,96978.84
2022-12-28T14:06:04.097Z,96984.59
2022-12-28T14:08:33.145Z,96980.13
2022-12-28T14:10:59.610Z,96977.88
2022-12-28T14:13:26.071Z,96977.66
2022-12-28T14:15:52.691Z,96984.03
2022-12-28T14:18:19.507Z,96976.84
2022-12-28T14:20:49.607Z,96973.19
2022-12-28T14:23:22.976Z,96978.63
2022-12-28T14:25:49.576Z,96969.47
2022-12-28T14:28:21.143Z,96968.97
2022-12-28T14:30:51.195Z,96972.16
2022-12-28T14:33:27.472Z,96968.25
2022-12-28T14:35:56.477Z,96978.09
2022-12-28T14:38:23.600Z,96979.41
2022-12-28T14:40:53.978Z,96959.63
2022-12-28T14:43:24.724Z,96967.50
2022-12-28T14:46:06.739Z,96952.34
2022-12-28T14:48:38.207Z,96948.13
2022-12-28T14:51:05.801Z,96956.31
2022-12-28T14:53:32.237Z,96958.44
2022-12-28T14:56:25.157Z,96967.19
2022-12-28T14:58:52.894Z,96955.75
2022-12-28T15:01:21.234Z,96950.63
2022-12-28T15:03:57.478Z,96955.66
2022-12-28T15:06:27.684Z,96959.25
2022-12-28T15:08:55.649Z,96957.28
2022-12-28T15:11:23.092Z,96965.28
2022-12-28T15:13:49.637Z,96964.25
2022-12-28T15:16:17.905Z,96958.31
2022-12-28T15:18:47.542Z,96959.13
2022-12-28T15:21:14.553Z,96964.47
2022-12-28T15:23:41.069Z,96951.84
2022-12-28T15:26:15.145Z,96954.78
2022-12-28T15:28:54.028Z,96944.09
2022-12-28T15:31:20.790Z,96948.59
2022-12-28T15:33:47.394Z,96946.34
2022-12-28T15:36:17.658Z,96938.75
2022-12-28T15:38:44.988Z,96935.56
2022-12-28T15:41:31.248Z,96946.72
2022-12-28T15:43:57.746Z,96947.03
2022-12-28T15:46:24.234Z,96950.69
2022-12-28T15:48:50.805Z,96950.16
2022-12-28T15:51:17.909Z,96956.38
2022-12-28T15:53:44.619Z,96947.16
2022-12-28T15:56:24.479Z,96944.25
2022-12-28T15:58:54.867Z,96938.22
2022-12-28T16:01:22.021Z,96947.53
2022-12-28T16:03:49.394Z,96945.69
2022-12-28T16:06:16.073Z,96938.81
2022-12-28T16:08:42.676Z,96930.16
2022-12-28T16:11:29.740Z,96929.13
2022-12-28T16:14:16.633Z,96930.03
2022-12-28T16:16:43.916Z,96926.03
2022-12-28T16:19:11.555Z,96920.81
2022-12-28T16:21:39.506Z,96914.13
2022-12-28T16:24:06.974Z,96930.25
2022-12-28T16:26:33.468Z,96934.44
2022-12-28T16:29:00.466Z,96929.31
2022-12-28T16:31:29.230Z,96920.72
2022-12-28T16:34:03.082Z,96924.22
2022-12-28T16:36:29.976Z,96924.38
2022-12-28T16:38:56.756Z,96918.56
2022-12-28T16:41:23.336Z,96928.78
2022-12-28T16:43:49.906Z,96920.41
2022-12-28T16:46:16.399Z,96922.22
2022-12-28T16:48:43.111Z,96918.13
2022-12-28T16:51:09.688Z,96924.06
2022-12-28T16:53:36.522Z,96922.31
2022-12-28T16:56:03.750Z,96910.50
2022-12-28T16:58:30.414Z,96911.34
2022-12-28T17:00:57.287Z,96913.16
2022-12-28T17:03:23.987Z,96914.19
2022-12-28T17:05:50.887Z,96919.59
2022-12-28T17:08:17.558Z,96922.53
2022-12-28T17:10:44.470Z,96915.69
2022-12-28T17:13:11.055Z,96923.56
2022-12-28T17:15:45.966Z,96920.25
2022-12-28T17:18:13.013Z,96922.91
2022-12-28T17:20:39.595Z,96916.16
2022-12-28T17:23:06.202Z,96915.13
2022-12-28T17:25:33.181Z,96909.84
2022-12-28T17:27:59.865Z,96909.84
2022-12-28T17:30:26.643Z,96905.63
2022-12-28T17:32:53.168Z,96915.88
2022-12-28T17:35:19.632Z,96912.41
2022-12-28T17:37:46.163Z,96902.88
2022-12-28T17:40:12.741Z,96904.72
2022-12-28T17:42:39.249Z,96905.25
2022-12-28T17:45:11.151Z,96898.19
2022-12-28T17:47:38.432Z,96895.47
2022-12-28T17:50:05.200Z,96891.25
2022-12-28T17:52:31.673Z,96882.72
2022-12-28T17:54:58.161Z,96875.34
2022-12-28T17:57:24.640Z,96878.53
2022-12-28T17:59:51.182Z,96882.22
2022-12-28T18:02:17.765Z,96877.91
2022-12-28T18:04:44.467Z,96876.06
2022-12-28T18:07:10.902Z,96880.00
2022-12-28T18:09:37.348Z,96867.63
2022-12-28T18:12:03.881Z,96865.50
2022-12-28T18:14:30.331Z,96869.63
2022-12-28T18:16:57.117Z,96872.06
2022-12-28T18:19:23.874Z,96872.16
2022-12-28T18:21:50.357Z,96877.19
2022-12-28T18:24:18.067Z,96882.94
2022-12-28T18:26:44.642Z,96874.88
2022-12-28T18:29:11.160Z,96878.16
2022-12-28T18:31:37.717Z,96877.13
2022-12-28T18:34:05.150Z,96882.16
2022-12-28T18:36:31.581Z,96876.22
2022-12-28T18:38:58.051Z,96868.63
2022-12-28T18:41:27.702Z,96873.03
2022-12-28T18:44:00.219Z,96862.56
2022-12-28T18:46:28.894Z,96869.03
2022-12-28T18:48:56.954Z,96870.38
2022-12-28T18:51:26.760Z,96867.63
2022-12-28T18:53:53.535Z,96855.53
2022-12-28T18:56:20.218Z,96854.94
2022-12-28T18:58:50.351Z,96865.25
2022-12-28T19:02:03.958Z,96854.59
2022-12-28T19:04:05.787Z,96850.91
2022-12-28T19:06:32.820Z,96850.22
2022-12-28T19:08:59.912Z,96842.31
2022-12-28T19:11:26.559Z,96856.34
2022-12-28T19:13:52.983Z,96847.31
2022-12-28T19:16:23.206Z,96842.53
2022-12-28T19:18:55.210Z,96843.13
2022-12-28T19:21:53.640Z,96835.56
2022-12-28T19:24:23.636Z,96826.44
2022-12-28T19:26:50.105Z,96822.13
2022-12-28T19:29:16.807Z,96835.66
2022-12-28T19:31:43.569Z,96829.72
2022-12-28T19:34:10.028Z,96829.72
2022-12-28T19:36:36.508Z,96834.84
2022-12-28T19:39:03.103Z,96833.94
2022-12-28T19:41:29.651Z,96835.03
2022-12-28T19:43:56.398Z,96825.94
2022-12-28T19:46:30.793Z,96808.81
2022-12-28T19:48:58.337Z,96808.00
2022-12-28T19:51:30.732Z,96797.34
2022-12-28T19:53:58.407Z,96808.00
2022-12-28T19:56:25.054Z,96793.13
2022-12-28T19:58:51.665Z,96785.34
2022-12-28T20:01:22.205Z,96797.00
2022-12-28T20:03:48.896Z,96787.28
2022-12-28T20:06:18.415Z,96790.66
2022-12-28T20:08:45.626Z,96785.06
2022-12-28T20:11:12.147Z,96782.56
2022-12-28T20:13:38.703Z,96785.75
2022-12-28T20:16:05.358Z,96782.16
2022-12-28T20:18:32.036Z,96783.47
2022-12-28T20:21:19.287Z,96788.09
2022-12-28T20:23:48.119Z,96784.81
2022-12-28T20:26:14.551Z,96792.31
2022-12-28T20:28:41.006Z,96816.50
2022-12-28T20:31:08.156Z,96804.72
2022-12-28T20:33:35.159Z,96809.22
2022-12-28T20:36:02.490Z,96795.72
2022-12-28T20:38:31.930Z,96810.16
2022-12-28T20:41:05.204Z,96805.13
2022-12-28T20:43:31.862Z,96800.22
2022-12-28T20:45:58.335Z,96798.69
2022-12-28T20:48:27.013Z,96800.50
2022-12-28T20:51:00.049Z,96790.56
2022-12-28T20:53:27.220Z,96783.28
2022-12-28T20:55:53.759Z,96773.53
2022-12-28T20:58:20.332Z,96773.75
2022-12-28T21:00:46.892Z,96772.09
2022-12-28T21:03:13.376Z,96769.53
2022-12-28T21:05:39.901Z,96764.63
2022-12-28T21:08:06.444Z,96758.69
2022-12-28T21:10:32.915Z,96761.78
2022-12-28T21:12:59.522Z,96764.13
2022-12-28T21:15:26.157Z,96760.72
2022-12-28T21:17:52.771Z,96761.66
2022-12-28T21:20:19.249Z,96768.63
2022-12-28T21:22:45.700Z,96759.69
2022-12-28T21:25:12.131Z,96756.75
2022-12-28T21:27:38.599Z,96748.44
2022-12-28T21:30:05.346Z,96736.16
2022-12-28T21:32:31.825Z,96734.00
2022-12-28T21:34:58.561Z,96738.72
2022-12-28T21:37:34.307Z,96728.56
2022-12-28T21:40:01.507Z,96731.44
2022-12-28T21:42:27.963Z,96735.13
2022-12-28T21:44:54.465Z,96737.47
2022-12-28T21:47:20.894Z,96733.38
2022-12-28T21:49:47.382Z,96747.00
2022-12-28T21:52:14.067Z,96748.09
2022-12-28T21:54:40.659Z,96742.16
2022-12-28T21:57:07.205Z,96752.22
2022-12-28T21:59:33.689Z,96736.63
2022-12-28T22:02:19.302Z,96753.03
2022-12-28T22:05:04.712Z,96739.41
2022-12-28T22:07:31.429Z,96737.78
2022-12-28T22:10:16.564Z,96735.41
2022-12-28T22:12:43.239Z,96720.03
2022-12-28T22:15:38.088Z,96725.38
2022-12-28T22:18:05.404Z,96717.59
2022-12-28T22:20:31.932Z,96716.56
2022-12-28T22:22:59.638Z,96714.75
2022-12-28T22:25:26.458Z,96730.19
2022-12-28T22:27:53.074Z,96732.16
2022-12-28T22:30:19.730Z,96728.66
2022-12-28T22:32:46.236Z,96729.78
2022-12-28T22:35:12.881Z,96734.78
2022-12-28T22:37:39.477Z,96722.19
2022-12-28T22:40:06.159Z,96721.97
2022-12-28T22:42:32.786Z,96717.69
2022-12-28T22:44:59.571Z,96700.38
2022-12-28T22:47:34.232Z,96688.38
2022-12-28T22:50:00.691Z,96691.78
2022-12-28T22:52:27.229Z,96691.28
2022-12-28T22:54:53.698Z,96701.72
2022-12-28T22:57:20.261Z,96698.22
2022-12-28T22:59:46.815Z,96693.84
2022-12-28T23:02:13.543Z,96680.91
2022-12-28T23:04:40.245Z,96694.44
2022-12-28T23:07:11.805Z,96685.13
2022-12-28T23:09:38.310Z,96687.69
2022-12-28T23:12:04.846Z,96686.34
2022-12-28T23:14:49.885Z,96674.56
2022-12-28T23:17:16.525Z,96671.28
2022-12-28T23:20:01.544Z,96677.97
2022-12-28T23:22:47.435Z,96681.63
2022-12-28T23:25:33.186Z,96683.38
2022-12-28T23:28:00.071Z,96679.28
2022-12-28T23:30:26.856Z,96667.09
2022-12-28T23:32:53.375Z,96672.72
2022-12-28T23:35:20.054Z,96667.50
2022-12-28T23:37:46.614Z,96669.84
2022-12-28T23:40:13.573Z,96677.31
2022-12-28T23:42:40.370Z,96683.88
2022-12-28T23:45:07.580Z,96680.78
2022-12-28T23:47:34.217Z,96679.28
2022-12-28T23:50:00.926Z,96671.38
2022-12-28T23:52:27.652Z,96682.53
2022-12-28T23:54:54.100Z,96681.84
2022-12-28T23:57:21.128Z,96684.28
2022-12-28T23:59:47.746Z,96677.13
